createdAt,value
2023-01-19T00:01:33.961Z,-0.89
2023-01-19T00:04:02.302Z,-0.93
2023-01-19T00:06:30.489Z,-0.95
2023-01-19T00:08:58.734Z,-0.94
2023-01-19T00:11:26.673Z,-0.91
2023-01-19T00:13:54.728Z,-0.93
2023-01-19T00:16:23.314Z,-0.94
2023-01-19T00:18:53.476Z,-0.92
2023-01-19T00:21:22.441Z,-0.94
2023-01-19T00:23:52.536Z,-0.92
2023-01-19T00:26:22.610Z,-0.95
2023-01-19T00:28:53.013Z,-0.91
2023-01-19T00:31:22.097Z,-0.94
2023-01-19T00:33:53.192Z,-0.93
2023-01-19T00:36:23.253Z,-0.94
2023-01-19T00:38:51.212Z,-0.93
2023-01-19T00:41:19.884Z,-0.94
2023-01-19T00:43:47.789Z,-0.93
2023-01-19T00:46:15.675Z,-0.91
2023-01-19T00:48:43.938Z,-0.92
2023-01-19T00:51:11.781Z,-0.93
2023-01-19T00:53:41.062Z,-0.92
2023-01-19T00:56:09.783Z,-0.92
2023-01-19T00:58:37.895Z,-0.88
2023-01-19T01:01:07.197Z,-0.85
2023-01-19T01:03:35.564Z,-0.84
2023-01-19T01:06:03.760Z,-0.82
2023-01-19T01:08:32.508Z,-0.83
2023-01-19T01:11:02.375Z,-0.82
2023-01-19T01:13:31.165Z,-0.80
2023-01-19T01:15:59.942Z,-0.85
2023-01-19T01:18:28.110Z,-0.82
2023-01-19T01:21:03.075Z,-0.81
2023-01-19T01:23:30.957Z,-0.79
2023-01-19T01:25:59.072Z,-0.79
2023-01-19T01:28:28.710Z,-0.78
2023-01-19T01:30:57.758Z,-0.77
2023-01-19T01:33:41.128Z,-0.74
2023-01-19T01:36:10.992Z,-0.79
2023-01-19T01:38:39.250Z,-0.78
2023-01-19T01:41:07.528Z,-0.76
2023-01-19T01:43:49.728Z,-0.77
2023-01-19T01:46:19.969Z,-0.80
2023-01-19T01:48:54.554Z,-0.81
2023-01-19T01:51:27.255Z,-0.82
2023-01-19T01:54:12.218Z,-0.81
2023-01-19T01:56:42.907Z,-0.83
2023-01-19T01:59:26.198Z,-0.83
2023-01-19T02:02:13.488Z,-0.85
2023-01-19T02:04:45.108Z,-0.83
2023-01-19T02:07:35.768Z,-0.81
2023-01-19T02:10:21.753Z,-0.83
2023-01-19T02:13:07.659Z,-0.88
2023-01-19T02:15:37.370Z,-0.87
2023-01-19T02:18:05.533Z,-0.87
2023-01-19T02:20:37.637Z,-0.89
2023-01-19T02:23:14.405Z,-0.84
2023-01-19T02:25:44.114Z,-0.90
2023-01-19T02:28:12.872Z,-0.90
2023-01-19T02:30:42.716Z,-0.90
2023-01-19T02:33:11.142Z,-0.95
2023-01-19T02:35:41.457Z,-0.86
2023-01-19T02:38:10.602Z,-0.97
2023-01-19T02:40:41.043Z,-0.97
2023-01-19T02:43:11.674Z,-0.98
2023-01-19T02:45:40.884Z,-1.08
2023-01-19T02:48:09.287Z,-1.10
2023-01-19T02:50:49.526Z,-1.11
2023-01-19T02:53:40.004Z,-1.13
2023-01-19T02:56:46.853Z,-1.13
2023-01-19T02:59:30.053Z,-1.17
2023-01-19T03:02:16.577Z,-1.23
2023-01-19T03:04:59.490Z,-1.26
2023-01-19T03:07:37.121Z,-1.26
2023-01-19T03:10:08.486Z,-1.28
2023-01-19T03:12:44.685Z,-1.29
2023-01-19T03:15:20.583Z,-1.29
2023-01-19T03:17:51.845Z,-1.31
2023-01-19T03:20:24.892Z,-1.32
2023-01-19T03:23:00.659Z,-1.36
2023-01-19T03:25:33.204Z,-1.42
2023-01-19T03:28:02.765Z,-1.44
2023-01-19T03:30:36.319Z,-1.46
2023-01-19T03:33:11.287Z,-1.48
2023-01-19T03:35:43.477Z,-1.55
2023-01-19T03:38:18.069Z,-1.58
2023-01-19T03:40:48.643Z,-1.61
2023-01-19T03:43:19.187Z,-1.64
2023-01-19T03:45:49.259Z,-1.64
2023-01-19T03:48:18.501Z,-1.66
2023-01-19T03:50:46.723Z,-1.63
2023-01-19T03:53:17.157Z,-1.69
2023-01-19T03:55:48.695Z,-1.73
2023-01-19T03:58:16.658Z,-1.75
2023-01-19T04:00:44.806Z,-1.76
2023-01-19T04:03:16.972Z,-1.82
2023-01-19T04:05:46.213Z,-1.79
2023-01-19T04:08:14.773Z,-1.77
2023-01-19T04:10:42.893Z,-1.76
2023-01-19T04:13:10.735Z,-1.82
2023-01-19T04:15:39.029Z,-1.69
2023-01-19T04:18:07.382Z,-1.74
2023-01-19T04:20:36.632Z,-1.75
2023-01-19T04:23:05.360Z,-1.81
2023-01-19T04:25:33.416Z,-1.81
2023-01-19T04:28:01.279Z,-1.80
2023-01-19T04:30:30.036Z,-1.82
2023-01-19T04:33:01.008Z,-1.81
2023-01-19T04:35:29.133Z,-1.81
2023-01-19T04:37:58.337Z,-1.81
2023-01-19T04:40:26.626Z,-1.77
2023-01-19T04:42:55.545Z,-1.79
2023-01-19T04:45:23.484Z,-1.69
2023-01-19T04:47:53.075Z,-1.72
2023-01-19T04:50:21.354Z,-1.84
2023-01-19T04:52:49.628Z,-1.87
2023-01-19T04:55:20.037Z,-1.87
2023-01-19T04:57:47.870Z,-1.87
2023-01-19T05:00:16.766Z,-1.88
2023-01-19T05:02:45.861Z,-1.87
2023-01-19T05:05:14.115Z,-1.87
2023-01-19T05:07:42.016Z,-1.87
2023-01-19T05:10:11.581Z,-1.85
2023-01-19T05:12:42.109Z,-1.81
2023-01-19T05:15:11.773Z,-1.83
2023-01-19T05:17:39.769Z,-1.86
2023-01-19T05:20:10.962Z,-1.87
2023-01-19T05:22:40.818Z,-1.89
2023-01-19T05:25:10.066Z,-1.88
2023-01-19T05:27:39.117Z,-1.88
2023-01-19T05:30:09.983Z,-1.86
2023-01-19T05:32:38.230Z,-1.89
2023-01-19T05:35:06.818Z,-1.88
2023-01-19T05:37:34.722Z,-1.90
2023-01-19T05:40:02.633Z,-1.93
2023-01-19T05:42:32.711Z,-1.94
2023-01-19T05:45:01.269Z,-1.94
2023-01-19T05:47:32.108Z,-1.94
2023-01-19T05:49:59.960Z,-1.94
2023-01-19T05:52:28.058Z,-1.96
2023-01-19T05:54:56.523Z,-1.99
2023-01-19T05:57:24.986Z,-2.02
2023-01-19T05:59:52.860Z,-2.03
2023-01-19T06:02:21.229Z,-2.12
2023-01-19T06:04:50.462Z,-2.11
2023-01-19T06:07:18.522Z,-2.16
2023-01-19T06:09:46.664Z,-2.07
2023-01-19T06:12:14.553Z,-2.11
2023-01-19T06:14:42.547Z,-2.10
2023-01-19T06:17:10.815Z,-2.13
2023-01-19T06:19:38.682Z,-2.11
2023-01-19T06:22:07.885Z,-2.05
2023-01-19T06:24:35.777Z,-2.01
2023-01-19T06:27:04.015Z,-1.99
2023-01-19T06:29:32.328Z,-2.00
2023-01-19T06:32:00.271Z,-2.01
2023-01-19T06:34:29.147Z,-2.03
2023-01-19T06:36:57.819Z,-2.00
2023-01-19T06:39:27.470Z,-2.01
2023-01-19T06:41:55.378Z,-2.04
2023-01-19T06:44:23.584Z,-2.01
2023-01-19T06:46:51.429Z,-2.00
2023-01-19T06:49:39.492Z,-1.99
2023-01-19T06:52:07.835Z,-2.05
2023-01-19T06:54:37.034Z,-2.01
2023-01-19T06:57:06.316Z,-2.02
2023-01-19T06:59:34.213Z,-2.06
2023-01-19T07:02:26.586Z,-2.02
2023-01-19T07:04:50.340Z,-2.01
2023-01-19T07:07:18.173Z,-2.07
2023-01-19T07:09:47.433Z,-2.05
2023-01-19T07:12:16.342Z,-2.06
2023-01-19T07:14:44.693Z,-2.05
2023-01-19T07:17:13.946Z,-2.04
2023-01-19T07:19:41.828Z,-2.07
2023-01-19T07:22:09.760Z,-2.08
2023-01-19T07:24:38.192Z,-2.09
2023-01-19T07:27:08.347Z,-2.07
2023-01-19T07:29:36.185Z,-2.04
2023-01-19T07:32:05.131Z,-2.12
2023-01-19T07:34:35.982Z,-2.00
2023-01-19T07:37:04.899Z,-2.10
2023-01-19T07:39:32.758Z,-2.15
2023-01-19T07:42:00.592Z,-2.19
2023-01-19T07:44:30.614Z,-2.22
2023-01-19T07:47:00.224Z,-2.18
2023-01-19T07:49:28.094Z,-2.18
2023-01-19T07:51:56.389Z,-2.18
2023-01-19T07:54:24.429Z,-2.18
2023-01-19T07:56:54.892Z,-2.14
2023-01-19T07:59:23.066Z,-2.15
2023-01-19T08:01:54.145Z,-2.18
2023-01-19T08:04:22.812Z,-2.18
2023-01-19T08:06:50.770Z,-2.19
2023-01-19T08:09:19.385Z,-2.18
2023-01-19T08:11:47.700Z,-2.14
2023-01-19T08:14:15.628Z,-2.13
2023-01-19T08:16:43.616Z,-2.07
2023-01-19T08:19:13.352Z,-2.01
2023-01-19T08:21:41.258Z,-1.97
2023-01-19T08:24:20.080Z,-1.91
2023-01-19T08:26:48.465Z,-1.79
2023-01-19T08:29:16.689Z,-1.72
2023-01-19T08:31:45.330Z,-1.64
2023-01-19T08:34:14.782Z,-1.56
2023-01-19T08:36:42.635Z,-1.51
2023-01-19T08:39:12.232Z,-1.44
2023-01-19T08:41:40.469Z,-1.37
2023-01-19T08:44:08.337Z,-1.29
2023-01-19T08:46:36.767Z,-1.28
2023-01-19T08:49:04.848Z,-1.22
2023-01-19T08:51:34.146Z,-1.13
2023-01-19T08:54:02.816Z,-1.08
2023-01-19T08:56:31.633Z,-1.01
2023-01-19T09:01:47.856Z,-0.86
2023-01-19T09:04:15.958Z,-0.84
2023-01-19T09:06:45.706Z,-0.79
2023-01-19T09:09:13.569Z,-0.73
2023-01-19T09:11:42.489Z,-0.66
2023-01-19T09:14:10.779Z,-0.64
2023-01-19T09:16:39.053Z,-0.61
2023-01-19T09:19:08.596Z,-0.59
2023-01-19T09:21:37.072Z,-0.52
2023-01-19T09:24:07.064Z,-0.45
2023-01-19T09:26:36.953Z,-0.38
2023-01-19T09:29:04.898Z,-0.31
2023-01-19T09:31:33.133Z,-0.26
2023-01-19T09:34:01.020Z,-0.17
2023-01-19T09:36:30.142Z,-0.17
2023-01-19T09:38:58.057Z,-0.12
2023-01-19T09:41:28.141Z,-0.04
2023-01-19T09:43:59.033Z,0.02
2023-01-19T09:46:35.408Z,0.08
2023-01-19T09:49:08.069Z,0.14
2023-01-19T09:51:39.140Z,0.18
2023-01-19T09:54:14.125Z,0.23
2023-01-19T09:56:44.758Z,0.23
2023-01-19T09:59:21.955Z,0.25
2023-01-19T10:02:05.515Z,0.24
2023-01-19T10:04:37.791Z,0.21
2023-01-19T10:07:15.899Z,0.29
2023-01-19T10:10:15.535Z,0.29
2023-01-19T10:12:56.321Z,0.29
2023-01-19T10:15:34.015Z,0.35
2023-01-19T10:18:15.606Z,0.42
2023-01-19T10:20:47.410Z,0.43
2023-01-19T10:23:27.167Z,0.51
2023-01-19T10:25:56.568Z,0.55
2023-01-19T10:28:28.299Z,0.61
2023-01-19T10:30:57.523Z,0.64
2023-01-19T10:33:26.079Z,0.71
2023-01-19T10:35:53.985Z,0.78
2023-01-19T10:38:22.414Z,0.89
2023-01-19T10:41:00.697Z,0.90
2023-01-19T10:43:41.615Z,0.91
2023-01-19T10:46:21.532Z,1.00
2023-01-19T10:48:51.862Z,1.04
2023-01-19T10:51:22.482Z,1.12
2023-01-19T10:54:01.083Z,1.13
2023-01-19T10:56:33.340Z,1.13
2023-01-19T10:59:04.908Z,1.15
2023-01-19T11:01:37.349Z,1.15
2023-01-19T11:04:28.658Z,1.19
2023-01-19T11:07:14.933Z,1.21
2023-01-19T11:09:42.834Z,1.17
2023-01-19T11:12:19.982Z,1.21
2023-01-19T11:14:53.514Z,1.19
2023-01-19T11:17:25.277Z,1.18
2023-01-19T11:20:02.071Z,1.13
2023-01-19T11:22:33.502Z,1.11
2023-01-19T11:25:04.398Z,1.09
2023-01-19T11:27:38.026Z,1.10
2023-01-19T11:30:17.216Z,1.08
2023-01-19T11:32:45.761Z,1.06
2023-01-19T11:35:34.171Z,1.07
2023-01-19T11:38:17.196Z,1.05
2023-01-19T11:40:56.805Z,1.06
2023-01-19T11:43:43.487Z,1.13
2023-01-19T11:46:18.774Z,1.12
2023-01-19T11:48:57.045Z,1.16
2023-01-19T11:51:29.179Z,1.22
2023-01-19T11:53:57.186Z,1.28
2023-01-19T11:56:29.977Z,1.30
2023-01-19T11:58:58.957Z,1.37
2023-01-19T12:01:34.229Z,1.40
2023-01-19T12:04:05.861Z,1.45
2023-01-19T12:06:36.973Z,1.54
2023-01-19T12:09:14.060Z,1.57
2023-01-19T12:11:47.578Z,1.55
2023-01-19T12:14:20.710Z,1.55
2023-01-19T12:16:53.074Z,1.54
2023-01-19T12:19:26.770Z,1.46
2023-01-19T12:21:55.225Z,1.45
2023-01-19T12:24:31.939Z,1.41
2023-01-19T12:27:02.243Z,1.39
2023-01-19T12:29:35.280Z,1.33
2023-01-19T12:32:19.669Z,1.29
2023-01-19T12:34:48.932Z,1.23
2023-01-19T12:37:45.346Z,1.17
2023-01-19T12:40:25.325Z,1.13
2023-01-19T12:43:00.336Z,1.11
2023-01-19T12:45:33.996Z,1.07
2023-01-19T12:48:05.303Z,1.07
2023-01-19T12:50:38.055Z,1.07
2023-01-19T12:53:17.621Z,1.07
2023-01-19T12:55:47.122Z,1.05
2023-01-19T12:58:18.723Z,1.03
2023-01-19T13:00:48.570Z,1.00
2023-01-19T13:03:47.496Z,0.97
2023-01-19T13:06:15.697Z,0.94
2023-01-19T13:09:01.604Z,0.92
2023-01-19T13:11:34.369Z,0.91
2023-01-19T13:14:34.842Z,0.92
2023-01-19T13:17:19.492Z,0.91
2023-01-19T13:20:42.749Z,0.87
2023-01-19T13:23:26.689Z,0.88
2023-01-19T13:26:04.272Z,0.87
2023-01-19T13:28:39.933Z,0.92
2023-01-19T13:31:10.111Z,0.91
2023-01-19T13:33:50.096Z,0.92
2023-01-19T13:36:26.839Z,0.91
2023-01-19T13:38:56.908Z,0.91
2023-01-19T13:41:28.364Z,0.88
2023-01-19T13:44:02.332Z,0.88
2023-01-19T13:46:33.555Z,0.84
2023-01-19T13:49:05.602Z,0.86
2023-01-19T13:51:34.835Z,0.85
2023-01-19T13:54:02.859Z,0.86
2023-01-19T13:56:31.155Z,0.85
2023-01-19T13:59:00.436Z,0.84
2023-01-19T14:01:30.448Z,0.80
2023-01-19T14:03:59.368Z,0.81
2023-01-19T14:06:40.038Z,0.79
2023-01-19T14:09:19.598Z,0.79
2023-01-19T14:12:05.226Z,0.76
2023-01-19T14:14:33.560Z,0.78
2023-01-19T14:17:01.568Z,0.78
2023-01-19T14:19:29.651Z,0.90
2023-01-19T14:22:03.793Z,0.87
2023-01-19T14:24:33.355Z,0.89
2023-01-19T14:27:25.334Z,0.86
2023-01-19T14:29:55.022Z,0.85
2023-01-19T14:32:25.769Z,0.86
2023-01-19T14:35:13.053Z,0.85
2023-01-19T14:37:50.448Z,0.86
2023-01-19T14:40:21.835Z,0.85
2023-01-19T14:42:54.311Z,0.88
2023-01-19T14:45:25.302Z,0.90
2023-01-19T14:48:00.032Z,0.92
2023-01-19T14:50:31.372Z,0.91
2023-01-19T14:53:03.775Z,0.91
2023-01-19T14:55:36.504Z,0.90
2023-01-19T14:58:11.752Z,0.91
2023-01-19T15:00:40.296Z,0.92
2023-01-19T15:03:10.028Z,0.96
2023-01-19T15:05:38.956Z,0.94
2023-01-19T15:08:09.494Z,0.93
2023-01-19T15:10:38.102Z,0.91
2023-01-19T15:13:06.706Z,0.93
2023-01-19T15:15:36.424Z,0.89
2023-01-19T15:18:06.366Z,0.89
2023-01-19T15:20:34.214Z,0.88
2023-01-19T15:23:02.061Z,0.89
2023-01-19T15:25:31.764Z,0.86
2023-01-19T15:28:00.574Z,0.87
2023-01-19T15:30:31.384Z,0.84
2023-01-19T15:32:59.272Z,0.84
2023-01-19T15:35:27.624Z,0.81
2023-01-19T15:37:56.140Z,0.79
2023-01-19T15:40:24.738Z,0.81
2023-01-19T15:42:53.987Z,0.77
2023-01-19T15:45:34.391Z,0.75
2023-01-19T15:48:09.012Z,0.73
2023-01-19T15:50:38.916Z,0.70
2023-01-19T15:53:07.387Z,0.69
2023-01-19T15:55:35.358Z,0.67
2023-01-19T15:58:05.493Z,0.62
2023-01-19T16:00:35.025Z,0.58
2023-01-19T16:03:04.358Z,0.55
2023-01-19T16:05:43.807Z,0.56
2023-01-19T16:08:12.865Z,0.57
2023-01-19T16:10:42.615Z,0.56
2023-01-19T16:13:14.990Z,0.58
2023-01-19T16:15:43.611Z,0.56
2023-01-19T16:18:11.539Z,0.54
2023-01-19T16:20:40.091Z,0.50
2023-01-19T16:23:16.095Z,0.44
2023-01-19T16:25:44.555Z,0.45
2023-01-19T16:28:13.914Z,0.42
2023-01-19T16:30:41.937Z,0.39
2023-01-19T16:33:11.735Z,0.37
2023-01-19T16:35:40.479Z,0.33
2023-01-19T16:38:09.518Z,0.32
2023-01-19T16:40:38.253Z,0.37
2023-01-19T16:43:06.781Z,0.42
2023-01-19T16:45:36.421Z,0.36
2023-01-19T16:48:05.061Z,0.29
2023-01-19T16:50:33.648Z,0.28
2023-01-19T16:53:01.787Z,0.24
2023-01-19T16:55:29.617Z,0.22
2023-01-19T16:57:59.657Z,0.18
2023-01-19T17:00:27.985Z,0.19
2023-01-19T17:02:57.592Z,0.20
2023-01-19T17:05:26.097Z,0.18
2023-01-19T17:07:54.287Z,0.20
2023-01-19T17:10:22.712Z,0.22
2023-01-19T17:12:51.060Z,0.21
2023-01-19T17:15:18.996Z,0.21
2023-01-19T17:17:47.037Z,0.18
2023-01-19T17:20:17.749Z,0.19
2023-01-19T17:22:45.833Z,0.14
2023-01-19T17:25:13.802Z,0.14
2023-01-19T17:27:42.473Z,0.10
2023-01-19T17:30:12.033Z,0.07
2023-01-19T17:32:42.668Z,0.05
2023-01-19T17:35:13.304Z,0.02
2023-01-19T17:37:43.175Z,0.04
2023-01-19T17:40:12.575Z,0.06
2023-01-19T17:42:42.063Z,0.05
2023-01-19T17:45:11.573Z,0.05
2023-01-19T17:47:40.385Z,0.03
2023-01-19T17:50:09.134Z,0.05
2023-01-19T17:52:38.486Z,0.06
2023-01-19T17:55:10.280Z,0.08
2023-01-19T17:57:39.077Z,0.08
2023-01-19T18:00:12.722Z,0.09
2023-01-19T18:02:41.316Z,0.12
2023-01-19T18:05:12.652Z,0.10
2023-01-19T18:07:41.239Z,0.05
2023-01-19T18:10:12.923Z,0.12
2023-01-19T18:12:43.586Z,0.12
2023-01-19T18:15:16.708Z,0.09
2023-01-19T18:17:45.422Z,0.09
2023-01-19T18:20:15.095Z,0.12
2023-01-19T18:22:43.523Z,0.09
2023-01-19T18:25:14.180Z,0.07
2023-01-19T18:27:42.451Z,0.13
2023-01-19T18:30:11.952Z,0.13
2023-01-19T18:32:41.142Z,0.11
2023-01-19T18:35:10.512Z,0.06
2023-01-19T18:37:38.766Z,0.00
2023-01-19T18:40:08.702Z,-0.04
2023-01-19T18:42:38.570Z,-0.06
2023-01-19T18:45:08.128Z,-0.08
2023-01-19T18:47:36.150Z,-0.08
2023-01-19T18:50:06.436Z,-0.14
2023-01-19T18:52:34.658Z,-0.13
2023-01-19T18:55:03.031Z,-0.12
2023-01-19T18:57:31.906Z,-0.11
2023-01-19T19:00:01.584Z,-0.10
2023-01-19T19:02:29.528Z,-0.08
2023-01-19T19:04:58.044Z,-0.08
2023-01-19T19:07:26.398Z,-0.04
2023-01-19T19:09:54.396Z,0.00
2023-01-19T19:12:23.886Z,0.03
2023-01-19T19:14:52.057Z,0.04
2023-01-19T19:17:22.136Z,0.05
2023-01-19T19:19:50.732Z,0.07
2023-01-19T19:22:18.758Z,0.10
2023-01-19T19:24:47.146Z,0.08
2023-01-19T19:27:16.369Z,0.11
2023-01-19T19:29:50.487Z,0.11
2023-01-19T19:32:20.935Z,0.09
2023-01-19T19:34:52.698Z,0.10
2023-01-19T19:37:21.954Z,0.12
2023-01-19T19:39:50.004Z,0.11
2023-01-19T19:42:19.269Z,0.09
2023-01-19T19:44:48.857Z,0.09
2023-01-19T19:47:16.899Z,0.06
2023-01-19T19:49:45.433Z,0.09
2023-01-19T19:52:14.784Z,0.08
2023-01-19T19:54:42.669Z,0.06
2023-01-19T19:57:12.764Z,0.03
2023-01-19T19:59:40.801Z,0.02
2023-01-19T20:02:10.956Z,-0.02
2023-01-19T20:04:39.178Z,0.00
2023-01-19T20:07:07.095Z,0.04
2023-01-19T20:09:37.416Z,0.03
2023-01-19T20:12:05.691Z,0.06
2023-01-19T20:14:33.846Z,0.06
2023-01-19T20:17:02.175Z,0.06
2023-01-19T20:19:32.537Z,0.05
2023-01-19T20:22:00.621Z,0.05
2023-01-19T20:24:30.561Z,0.06
2023-01-19T20:27:00.132Z,0.07
2023-01-19T20:29:28.343Z,0.09
2023-01-19T20:31:57.278Z,0.08
2023-01-19T20:34:28.172Z,0.11
2023-01-19T20:36:57.137Z,0.12
2023-01-19T20:39:26.209Z,0.11
2023-01-19T20:41:54.351Z,0.10
2023-01-19T20:44:26.190Z,0.12
2023-01-19T20:46:56.016Z,0.14
2023-01-19T20:49:24.171Z,0.11
2023-01-19T20:51:52.797Z,0.14
2023-01-19T20:54:24.407Z,0.15
2023-01-19T20:56:52.387Z,0.13
2023-01-19T20:59:20.916Z,0.12
2023-01-19T21:01:51.097Z,0.12
2023-01-19T21:04:20.525Z,0.14
2023-01-19T21:06:48.933Z,0.14
2023-01-19T21:09:18.604Z,0.14
2023-01-19T21:11:46.761Z,0.13
2023-01-19T21:14:15.340Z,0.11
2023-01-19T21:16:43.581Z,0.07
2023-01-19T21:19:13.812Z,0.05
2023-01-19T21:21:42.011Z,-0.01
2023-01-19T21:24:11.746Z,-0.02
2023-01-19T21:26:41.935Z,-0.05
2023-01-19T21:29:13.475Z,-0.05
2023-01-19T21:31:41.823Z,-0.04
2023-01-19T21:34:10.497Z,-0.03
2023-01-19T21:36:40.385Z,-0.03
2023-01-19T21:39:09.499Z,-0.03
2023-01-19T21:41:39.810Z,0.00
2023-01-19T21:44:07.715Z,-0.01
2023-01-19T21:46:36.336Z,-0.03
2023-01-19T21:49:06.336Z,-0.06
2023-01-19T21:51:37.773Z,-0.08
2023-01-19T21:54:08.060Z,-0.07
2023-01-19T21:56:38.020Z,-0.14
2023-01-19T21:59:06.354Z,-0.16
2023-01-19T22:01:35.130Z,-0.18
2023-01-19T22:04:04.009Z,-0.24
2023-01-19T22:06:32.275Z,-0.23
2023-01-19T22:09:00.779Z,-0.26
2023-01-19T22:11:30.814Z,-0.28
2023-01-19T22:13:59.831Z,-0.27
2023-01-19T22:16:28.467Z,-0.25
2023-01-19T22:18:59.963Z,-0.24
2023-01-19T22:21:30.119Z,-0.20
2023-01-19T22:24:00.541Z,-0.21
2023-01-19T22:26:32.132Z,-0.24
2023-01-19T22:29:02.714Z,-0.26
2023-01-19T22:31:32.150Z,-0.26
2023-01-19T22:34:00.457Z,-0.27
2023-01-19T22:36:30.699Z,-0.29
2023-01-19T22:39:00.746Z,-0.27
2023-01-19T22:41:32.176Z,-0.25
2023-01-19T22:44:02.273Z,-0.25
2023-01-19T22:46:32.472Z,-0.20
2023-01-19T22:49:01.441Z,-0.19
2023-01-19T22:51:31.183Z,-0.15
2023-01-19T22:53:59.803Z,-0.12
2023-01-19T22:56:31.212Z,-0.09
2023-01-19T22:59:01.336Z,-0.07
2023-01-19T23:01:32.368Z,-0.04
2023-01-19T23:04:00.670Z,-0.01
2023-01-19T23:06:30.645Z,-0.01
2023-01-19T23:09:00.509Z,0.00
2023-01-19T23:11:31.079Z,0.00
2023-01-19T23:13:59.647Z,0.02
2023-01-19T23:16:27.851Z,0.02
2023-01-19T23:18:57.085Z,0.00
2023-01-19T23:21:27.417Z,-0.01
2023-01-19T23:23:56.738Z,-0.03
2023-01-19T23:26:26.205Z,-0.04
2023-01-19T23:28:57.986Z,-0.06
2023-01-19T23:31:27.512Z,-0.07
2023-01-19T23:33:57.977Z,-0.08
2023-01-19T23:36:27.741Z,-0.11
2023-01-19T23:38:58.116Z,-0.12
2023-01-19T23:41:28.076Z,-0.15
2023-01-19T23:43:58.070Z,-0.19
2023-01-19T23:46:26.450Z,-0.21
2023-01-19T23:48:55.185Z,-0.20
2023-01-19T23:51:25.696Z,-0.21
2023-01-19T23:53:54.381Z,-0.23
2023-01-19T23:56:25.172Z,-0.28
2023-01-19T23:58:55.006Z,-0.29
